Time;durP1;ratioP1;P1;durP2;ratioP2;P2;SDS_P1;SDS_P2;PMS_P1;PMS_P2;Temp;Humidity;BMP_temperature;BMP_pressure;BME280_temperature;BME280_humidity;BME280_pressure;Samples;Min_cycle;Max_cycle;Signal;HPM_P1;HPM_P2
2022/03/16 00:01:50;;;;;;;142.07;49.20;;;;;;;5.01;59.45;99343.30;2173763;81;20949;-81
2022/03/16 00:04:51;;;;;;;126.73;44.80;;;;;;;4.99;59.50;99337.17;2175080;81;20897;-81
2022/03/16 00:07:52;;;;;;;108.23;40.83;;;;;;;4.97;59.79;99333.64;2174623;82;21339;-81
2022/03/16 00:10:52;;;;;;;101.90;40.47;;;;;;;4.99;60.02;99329.82;2174416;81;20921;-81
2022/03/16 00:13:53;;;;;;;106.47;39.73;;;;;;;5.00;59.99;99321.23;2174544;82;20949;-81
2022/03/16 00:16:53;;;;;;;70.17;21.73;;;;;;;4.93;60.40;99323.09;2174255;81;20964;-80
2022/03/16 00:19:54;;;;;;;81.90;24.20;;;;;;;4.99;70.53;99321.65;2173272;82;20921;-78
2022/03/16 00:22:55;;;;;;;143.47;52.80;;;;;;;8.33;70.72;99298.80;2175170;81;20921;-82
2022/03/16 00:25:55;;;;;;;138.07;57.17;;;;;;;9.83;56.98;99293.53;2175497;81;20961;-82
2022/03/16 00:28:56;;;;;;;93.90;43.87;;;;;;;8.73;54.51;99299.52;2175959;82;20945;-82
2022/03/16 00:31:57;;;;;;;86.73;41.27;;;;;;;7.88;54.50;99300.53;2175641;82;21056;-82
2022/03/16 00:34:58;;;;;;;102.20;45.63;;;;;;;7.22;54.73;99288.50;2175263;82;20977;-82
2022/03/16 00:37:58;;;;;;;107.50;44.23;;;;;;;6.74;55.55;99295.11;2174850;82;20971;-82
2022/03/16 00:40:59;;;;;;;97.73;43.20;;;;;;;6.37;56.02;99288.64;2174010;81;20983;-82
2022/03/16 00:43:59;;;;;;;106.43;46.70;;;;;;;6.08;56.43;99287.13;2172277;81;20964;-81
2022/03/16 00:47:00;;;;;;;70.10;26.63;;;;;;;5.80;57.11;99283.86;2171242;81;21471;-81
2022/03/16 00:50:00;;;;;;;106.40;50.33;;;;;;;6.26;69.05;99268.35;2172226;81;20972;-81
2022/03/16 00:53:01;;;;;;;83.97;42.27;;;;;;;7.06;57.70;99266.36;2173793;81;20929;-82
2022/03/16 00:56:01;;;;;;;85.30;42.53;;;;;;;6.59;56.96;99279.02;2172569;81;20976;-82
2022/03/16 00:59:05;;;;;;;99.03;44.80;;;;;;;6.09;57.04;99275.94;2172788;81;21941;-82
2022/03/16 01:02:06;;;;;;;81.07;40.67;;;;;;;5.78;57.33;99283.81;2174339;81;21032;-81
2022/03/16 01:05:06;;;;;;;91.83;42.23;;;;;;;5.55;57.61;99282.94;2175531;82;21360;-81
2022/03/16 01:08:07;;;;;;;128.80;61.90;;;;;;;5.38;58.19;99273.63;2173878;81;21005;-82
2022/03/16 01:11:07;;;;;;;89.23;43.20;;;;;;;5.18;58.51;99275.41;2174760;81;20889;-81
2022/03/16 01:14:08;;;;;;;107.40;50.00;;;;;;;5.04;58.74;99273.97;2173185;81;20965;-81
2022/03/16 01:17:08;;;;;;;93.37;45.20;;;;;;;4.95;59.20;99263.25;2172159;81;20949;-81
2022/03/16 01:20:09;;;;;;;341.07;65.03;;;;;;;4.87;59.54;99278.87;2171114;81;21015;-81
2022/03/16 01:23:09;;;;;;;98.80;50.30;;;;;;;4.78;59.43;99275.50;2172521;81;20997;-81
2022/03/16 01:26:10;;;;;;;109.40;45.40;;;;;;;4.74;59.72;99271.90;2172970;81;20968;-82
2022/03/16 01:29:10;;;;;;;113.67;43.67;;;;;;;4.73;59.64;99274.42;2173072;81;20937;-82
2022/03/16 01:32:11;;;;;;;171.03;45.97;;;;;;;4.68;59.39;99272.94;2172795;82;20901;-82
2022/03/16 01:35:11;;;;;;;123.00;44.60;;;;;;;4.66;59.04;99268.52;2172315;81;20970;-82
2022/03/16 01:38:12;;;;;;;102.90;43.33;;;;;;;4.69;59.19;99266.06;2172704;81;20980;-82
2022/03/16 01:41:12;;;;;;;117.77;60.00;;;;;;;4.68;59.28;99268.17;2174792;81;20930;-82
2022/03/16 01:44:13;;;;;;;113.87;59.97;;;;;;;4.65;59.49;99265.46;2173122;82;20941;-81
2022/03/16 01:47:13;;;;;;;203.73;50.03;;;;;;;4.67;59.74;99269.00;2173518;81;20913;-81
2022/03/16 01:50:14;;;;;;;110.80;50.23;;;;;;;4.64;59.50;99267.58;2174154;82;20949;-81
2022/03/16 01:53:15;;;;;;;152.60;58.17;;;;;;;4.57;60.11;99262.97;2172022;81;20945;-81
2022/03/16 01:56:15;;;;;;;125.57;58.17;;;;;;;4.54;60.70;99258.95;2171258;81;20992;-81
2022/03/16 01:59:16;;;;;;;125.73;55.97;;;;;;;4.54;60.74;99262.43;2172993;81;21024;-81
2022/03/16 02:02:17;;;;;;;92.73;45.17;;;;;;;4.53;61.00;99262.36;2171065;81;20914;-81
2022/03/16 02:05:17;;;;;;;73.77;38.37;;;;;;;4.50;60.94;99264.82;2172439;81;20949;-81
2022/03/16 02:08:18;;;;;;;97.23;43.33;;;;;;;4.45;61.05;99259.05;2172296;81;20996;-82
2022/03/16 02:11:18;;;;;;;131.60;51.50;;;;;;;4.42;61.19;99258.92;2172469;81;20929;-81
2022/03/16 02:14:19;;;;;;;128.97;53.03;;;;;;;4.43;61.31;99258.50;2172738;81;21031;-81
2022/03/16 02:17:19;;;;;;;195.70;54.43;;;;;;;4.44;61.36;99256.39;2171387;81;21374;-82
2022/03/16 02:20:20;;;;;;;108.73;48.57;;;;;;;4.40;61.50;99252.80;2171044;82;21668;-82
2022/03/16 02:23:20;;;;;;;99.60;45.97;;;;;;;4.40;61.35;99260.55;2168724;81;20976;-82
2022/03/16 02:26:21;;;;;;;99.77;47.30;;;;;;;4.36;61.42;99256.07;2170147;81;20926;-83
2022/03/16 02:29:21;;;;;;;84.70;43.83;;;;;;;4.33;61.37;99249.44;2171163;81;20941;-83
2022/03/16 02:32:22;;;;;;;94.70;43.50;;;;;;;4.34;61.32;99258.11;2170548;81;20933;-83
2022/03/16 02:35:22;;;;;;;78.83;42.17;;;;;;;4.30;61.37;99264.82;2171687;80;20989;-83
2022/03/16 02:38:23;;;;;;;153.87;48.00;;;;;;;4.28;61.33;99266.45;2171048;81;21406;-77
2022/03/16 02:41:23;;;;;;;86.43;42.80;;;;;;;4.30;61.44;99263.94;2171015;81;21304;-83
2022/03/16 02:44:24;;;;;;;90.17;43.70;;;;;;;4.27;61.25;99275.02;2171024;81;20938;-83
2022/03/16 02:47:24;;;;;;;119.80;44.33;;;;;;;4.28;61.44;99270.33;2171629;81;20968;-83
2022/03/16 02:50:25;;;;;;;98.47;44.97;;;;;;;4.31;61.50;99265.30;2169547;81;20960;-82
2022/03/16 02:53:26;;;;;;;105.90;44.23;;;;;;;4.25;61.48;99277.95;2170954;81;21004;-84
2022/03/16 02:56:27;;;;;;;89.60;41.73;;;;;;;4.29;61.52;99279.85;2170783;81;20977;-81
2022/03/16 02:59:27;;;;;;;99.10;48.00;;;;;;;4.31;61.42;99288.96;2170834;81;21419;-82
2022/03/16 03:02:28;;;;;;;93.00;37.87;;;;;;;4.29;61.64;99282.84;2171968;81;20905;-84
2022/03/16 03:05:28;;;;;;;100.87;33.63;;;;;;;4.45;70.46;99278.44;2171013;81;20925;-81
2022/03/16 03:08:29;;;;;;;95.70;49.83;;;;;;;8.38;72.55;99260.81;2171144;81;21410;-83
2022/03/16 03:11:29;;;;;;;146.27;58.73;;;;;;;9.69;56.64;99259.77;2170623;81;21011;-83
2022/03/16 03:14:30;;;;;;;157.30;60.40;;;;;;;8.44;54.70;99254.48;2171598;81;20913;-83
2022/03/16 03:17:31;;;;;;;140.00;58.23;;;;;;;7.39;54.79;99261.34;2170210;81;20976;-84
2022/03/16 03:20:32;;;;;;;129.37;59.80;;;;;;;6.76;55.51;99264.91;2170183;81;21004;-83
2022/03/16 03:23:33;;;;;;;202.63;58.90;;;;;;;6.23;56.04;99261.34;2169789;81;20975;-81
2022/03/16 03:26:33;;;;;;;226.57;60.63;;;;;;;5.82;56.58;99261.48;2170661;81;20941;-82
2022/03/16 03:29:34;;;;;;;169.93;53.60;;;;;;;5.54;57.21;99259.57;2170414;81;20941;-83
2022/03/16 03:32:34;;;;;;;130.80;54.27;;;;;;;6.77;60.21;99251.52;2171690;82;20980;-81
2022/03/16 03:35:35;;;;;;;180.40;59.57;;;;;;;6.68;57.32;99252.97;2171074;81;20981;-84
2022/03/16 03:38:35;;;;;;;172.33;63.27;;;;;;;6.33;56.89;99243.98;2170661;81;20992;-83
2022/03/16 03:41:36;;;;;;;104.47;52.37;;;;;;;5.94;57.36;99240.83;2172109;81;20925;-83
2022/03/16 03:44:37;;;;;;;118.40;54.00;;;;;;;5.60;57.99;99243.86;2171125;82;20925;-83
2022/03/16 03:47:37;;;;;;;93.27;46.20;;;;;;;5.36;58.50;99241.22;2172196;81;21000;-82
2022/03/16 03:50:38;;;;;;;84.43;42.83;;;;;;;5.18;59.38;99237.00;2170948;81;21011;-83
2022/03/16 03:53:39;;;;;;;79.50;42.23;;;;;;;5.07;59.88;99246.52;2170154;81;21355;-82
2022/03/16 03:56:39;;;;;;;73.67;41.00;;;;;;;4.99;60.59;99243.15;2170888;81;21391;-83
2022/03/16 03:59:40;;;;;;;71.10;39.10;;;;;;;4.94;61.46;99244.26;2170970;81;21304;-83
2022/03/16 04:02:40;;;;;;;70.17;35.27;;;;;;;4.87;61.61;99251.30;2172495;81;20964;-83
2022/03/16 04:05:41;;;;;;;75.87;38.77;;;;;;;7.33;68.99;99242.98;2170490;81;20965;-81
2022/03/16 04:08:42;;;;;;;75.57;38.63;;;;;;;7.67;59.97;99234.48;2171192;81;21036;-83
2022/03/16 04:11:43;;;;;;;102.87;41.43;;;;;;;7.11;58.75;99236.23;2171114;81;20902;-83
2022/03/16 04:14:44;;;;;;;77.27;40.37;;;;;;;6.62;58.71;99237.62;2172725;81;20937;-84
2022/03/16 04:17:44;;;;;;;78.77;39.07;;;;;;;6.19;59.30;99232.26;2172657;82;20949;-84
2022/03/16 04:20:45;;;;;;;72.40;39.93;;;;;;;5.91;59.86;99235.54;2171865;81;20941;-84
2022/03/16 04:23:47;;;;;;;69.20;37.57;;;;;;;5.74;60.15;99232.30;2170970;81;20983;-84
2022/03/16 04:26:47;;;;;;;81.23;37.90;;;;;;;5.54;60.53;99231.97;2172347;81;21009;-83
2022/03/16 04:29:48;;;;;;;83.37;38.80;;;;;;;5.38;60.53;99237.39;2169943;81;20969;-83
2022/03/16 04:32:51;;;;;;;78.20;38.57;;;;;;;5.19;60.42;99237.06;2170344;81;20914;-83
2022/03/16 04:35:50;;;;;;;89.70;37.93;;;;;;;7.30;64.36;99230.78;2170959;81;22104;-83
2022/03/16 04:38:51;;;;;;;93.00;37.73;;;;;;;7.42;58.58;99234.59;2169787;81;21067;-83
2022/03/16 04:41:52;;;;;;;100.70;38.43;;;;;;;6.73;58.03;99233.67;2170123;82;21030;-83
2022/03/16 04:44:52;;;;;;;73.07;38.10;;;;;;;6.22;58.57;99235.37;2170486;81;21008;-82
2022/03/16 04:47:53;;;;;;;68.57;36.30;;;;;;;5.74;59.04;99246.55;2171011;81;20944;-83
2022/03/16 04:50:53;;;;;;;72.80;37.40;;;;;;;5.46;59.90;99251.92;2171000;81;20968;-80
2022/03/16 04:53:54;;;;;;;96.27;33.43;;;;;;;5.21;60.26;99257.85;2169590;81;20980;-79
2022/03/16 04:56:55;;;;;;;67.23;34.87;;;;;;;6.75;68.67;99253.17;2169723;81;20995;-83
2022/03/16 04:59:55;;;;;;;158.10;40.97;;;;;;;9.49;62.73;99237.56;2171045;81;21003;-82
2022/03/16 05:02:56;;;;;;;74.20;36.77;;;;;;;10.46;58.62;99236.17;2161545;82;21869;-82
2022/03/16 05:05:58;;;;;;;62.90;35.60;;;;;;;9.75;53.86;99239.47;2171100;81;20980;-83
2022/03/16 05:08:58;;;;;;;74.93;39.53;;;;;;;8.62;53.93;99244.13;2168684;81;21071;-82
2022/03/16 05:11:59;;;;;;;94.23;44.80;;;;;;;7.73;54.78;99251.97;2168929;81;20937;-82
2022/03/16 05:14:59;;;;;;;93.47;43.53;;;;;;;7.08;56.04;99254.73;2168736;81;20996;-83
2022/03/16 05:18:00;;;;;;;77.90;37.53;;;;;;;6.62;57.13;99265.73;2169253;81;21012;-80
2022/03/16 05:21:03;;;;;;;90.33;40.50;;;;;;;6.73;64.56;99269.11;2167113;81;20996;-79
2022/03/16 05:24:03;;;;;;;74.47;41.23;;;;;;;9.28;61.44;99256.20;2167461;81;21064;-81
2022/03/16 05:27:04;;;;;;;255.53;54.87;;;;;;;10.98;56.23;99254.94;2168566;81;20944;-82
2022/03/16 05:30:04;;;;;;;282.87;53.10;;;;;;;10.32;54.25;99258.48;2169201;82;20984;-83
2022/03/16 05:33:05;;;;;;;150.00;48.23;;;;;;;10.78;55.74;99258.51;2172032;81;20991;-83
2022/03/16 05:36:05;;;;;;;92.57;44.73;;;;;;;11.76;54.58;99260.06;2170333;81;21044;-84
2022/03/16 05:39:06;;;;;;;125.57;42.77;;;;;;;12.53;53.06;99264.13;2172568;81;21111;-84
2022/03/16 05:42:08;;;;;;;81.17;42.50;;;;;;;13.01;50.69;99261.13;2170727;81;20993;-83
2022/03/16 05:45:08;;;;;;;136.20;46.20;;;;;;;12.73;48.67;99259.09;2172480;81;21043;-85
2022/03/16 05:48:11;;;;;;;85.37;43.20;;;;;;;11.13;48.28;99264.33;2161185;82;21023;-82
2022/03/16 05:51:11;;;;;;;86.30;49.03;;;;;;;9.73;49.87;99268.11;2171782;81;20996;-82
2022/03/16 05:54:12;;;;;;;83.20;48.87;;;;;;;8.78;51.46;99284.90;2171791;81;21356;-85
2022/03/16 05:57:13;;;;;;;93.37;52.93;;;;;;;8.08;52.85;99287.70;2171585;81;21403;-84
2022/03/16 06:00:17;;;;;;;93.20;52.03;;;;;;;7.54;54.18;99290.81;2172227;81;21224;-85
2022/03/16 06:03:21;;;;;;;84.27;50.30;;;;;;;7.21;55.22;99288.03;2172091;81;21055;-84
2022/03/16 06:06:21;;;;;;;82.03;50.37;;;;;;;6.93;56.10;99290.11;2172780;81;21035;-83
2022/03/16 06:09:22;;;;;;;94.13;50.60;;;;;;;6.73;56.78;99297.23;2172317;81;20996;-83
2022/03/16 06:12:22;;;;;;;145.30;51.23;;;;;;;6.57;57.48;99294.52;2171865;81;20984;-82
2022/03/16 06:15:24;;;;;;;86.00;47.93;;;;;;;6.51;58.71;99305.98;2171761;81;20988;-83
2022/03/16 06:18:24;;;;;;;90.77;46.80;;;;;;;6.39;58.71;99315.92;2170948;82;21019;-82
2022/03/16 06:21:27;;;;;;;293.43;59.37;;;;;;;6.25;58.75;99315.42;2161189;82;21008;-83
2022/03/16 06:24:28;;;;;;;162.67;52.27;;;;;;;6.20;59.23;99322.16;2170888;82;20984;-82
2022/03/16 06:27:28;;;;;;;111.70;47.67;;;;;;;6.16;59.33;99327.17;2154970;81;20963;-83
2022/03/16 06:30:29;;;;;;;103.87;47.50;;;;;;;6.16;59.69;99333.23;2108224;84;20978;-83
2022/03/16 06:33:30;;;;;;;89.43;51.13;;;;;;;6.17;59.62;99338.89;2117870;84;20986;-83
2022/03/16 06:36:30;;;;;;;95.87;52.33;;;;;;;6.19;59.75;99339.83;2115835;84;21686;-83
2022/03/16 06:39:31;;;;;;;82.47;48.50;;;;;;;6.19;59.84;99348.91;2109918;83;21516;-81
2022/03/16 06:42:31;;;;;;;89.50;47.03;;;;;;;6.19;60.15;99348.02;2117840;84;21416;-82
2022/03/16 06:45:32;;;;;;;276.30;60.70;;;;;;;6.19;60.34;99349.31;2117796;84;21010;-81
2022/03/16 06:48:32;;;;;;;90.23;46.70;;;;;;;6.17;60.54;99357.04;2117640;83;20982;-83
2022/03/16 06:51:33;;;;;;;77.20;45.33;;;;;;;6.14;60.74;99356.05;2114358;84;21256;-84
2022/03/16 06:54:33;;;;;;;75.83;45.10;;;;;;;6.11;60.89;99360.70;2117830;84;20951;-84
2022/03/16 06:57:34;;;;;;;69.53;43.60;;;;;;;6.14;61.10;99357.34;2117909;84;21021;-84
2022/03/16 07:00:34;;;;;;;137.87;48.70;;;;;;;6.14;61.02;99363.41;2110130;83;20990;-83
2022/03/16 07:03:35;;;;;;;77.37;45.70;;;;;;;6.20;60.92;99365.34;2118600;83;20970;-82
2022/03/16 07:06:35;;;;;;;80.33;45.97;;;;;;;6.32;60.63;99364.50;2117613;84;20994;-83
2022/03/16 07:12:38;;;;;;;76.97;45.43;;;;;;;6.58;59.99;99357.25;2093898;84;21009;-83
2022/03/16 07:15:38;;;;;;;74.83;43.40;;;;;;;6.77;59.14;99370.45;2108110;84;21041;-83
2022/03/16 07:18:39;;;;;;;72.17;44.37;;;;;;;6.98;58.79;99365.16;2118727;84;21037;-84
2022/03/16 07:21:40;;;;;;;68.93;41.17;;;;;;;7.20;58.24;99371.95;2109628;83;21001;-82
2022/03/16 07:24:40;;;;;;;74.87;42.00;;;;;;;7.39;56.94;99370.84;2118625;84;21002;-84
2022/03/16 07:27:41;;;;;;;65.97;41.40;;;;;;;7.63;56.91;99372.94;2117114;84;21009;-83
2022/03/16 07:30:44;;;;;;;64.13;38.43;;;;;;;7.85;54.94;99381.02;2113951;84;20963;-84
2022/03/16 07:33:45;;;;;;;62.87;37.20;;;;;;;8.03;54.38;99381.58;2115084;84;21047;-84
2022/03/16 07:36:45;;;;;;;68.13;39.30;;;;;;;8.24;53.70;99389.14;2115276;84;21733;-82
2022/03/16 07:39:46;;;;;;;62.50;38.83;;;;;;;8.42;53.57;99381.91;2100753;84;21026;-84
2022/03/16 07:42:47;;;;;;;75.23;38.43;;;;;;;8.69;52.66;99399.17;2089346;85;21014;-84
2022/03/16 07:45:48;;;;;;;62.53;38.43;;;;;;;8.89;51.61;99391.07;2090302;84;21283;-85
2022/03/16 07:48:48;;;;;;;71.30;40.67;;;;;;;9.12;50.47;99394.70;2104949;84;21119;-82
2022/03/16 07:51:49;;;;;;;76.87;37.40;;;;;;;9.38;49.73;99400.59;2109511;84;21003;-83
2022/03/16 07:54:49;;;;;;;55.37;34.17;;;;;;;9.60;47.72;99400.73;2090749;85;21006;-83
2022/03/16 07:57:50;;;;;;;54.33;33.20;;;;;;;9.71;47.42;99404.48;2090882;84;20924;-86
2022/03/16 08:00:55;;;;;;;54.87;34.17;;;;;;;9.76;46.12;99406.77;2107198;84;21057;-83
2022/03/16 08:03:58;;;;;;;50.87;31.53;;;;;;;9.75;46.83;99414.14;1983462;89;21027;-83
2022/03/16 08:06:58;;;;;;;53.77;34.63;;;;;;;9.93;45.89;99419.79;1980092;90;21087;-83
2022/03/16 08:09:59;;;;;;;55.93;30.67;;;;;;;10.07;46.19;99422.72;1979237;89;21075;-83
2022/03/16 08:12:59;;;;;;;58.80;34.43;;;;;;;10.12;44.47;99424.58;1979070;90;21040;-82
2022/03/16 08:16:00;;;;;;;51.37;32.33;;;;;;;10.14;45.39;99424.62;1978823;90;21233;-84
2022/03/16 08:19:00;;;;;;;66.57;35.87;;;;;;;10.15;44.47;99430.30;1980167;90;21015;-84
2022/03/16 08:22:01;;;;;;;73.23;38.13;;;;;;;10.05;44.35;99440.94;1978303;90;21053;-85
2022/03/16 08:25:03;;;;;;;110.00;34.20;;;;;;;9.90;44.95;99433.64;1938907;90;21653;-83
2022/03/16 08:28:04;;;;;;;62.43;37.20;;;;;;;9.90;44.88;99428.84;1979119;90;21019;-84
2022/03/16 08:31:07;;;;;;;57.87;34.47;;;;;;;9.94;44.71;99438.50;1977873;90;21459;-83
2022/03/16 08:34:08;;;;;;;121.33;51.73;;;;;;;10.04;44.64;99441.78;1978358;90;21052;-86
2022/03/16 08:37:09;;;;;;;59.70;34.37;;;;;;;10.08;43.92;99442.73;1979437;89;21036;-84
2022/03/16 08:40:09;;;;;;;48.50;32.83;;;;;;;10.20;44.25;99446.55;1980269;89;21147;-85
2022/03/16 08:43:11;;;;;;;65.13;34.80;;;;;;;10.43;43.43;99451.00;1979861;90;21127;-86
2022/03/16 08:46:12;;;;;;;60.77;35.40;;;;;;;10.67;43.03;99461.09;1980256;90;21036;-84
2022/03/16 08:49:13;;;;;;;82.97;33.20;;;;;;;10.96;42.43;99450.36;1979185;90;21071;-84
2022/03/16 08:52:13;;;;;;;64.15;39.10;;;;;;;11.27;42.36;99454.05;1979755;90;21083;-85
2022/03/16 08:55:15;;;;;;;62.58;37.53;;;;;;;11.67;41.18;99456.95;1977673;90;21075;-83
2022/03/16 08:58:17;;;;;;;46.73;29.75;;;;;;;11.84;40.90;99455.95;1957213;90;21135;-83
2022/03/16 09:01:18;;;;;;;47.48;31.70;;;;;;;12.18;39.98;99460.02;2063164;85;21187;-83
2022/03/16 09:04:18;;;;;;;41.68;28.80;;;;;;;12.33;39.33;99464.59;2098249;84;21014;-86
2022/03/16 09:07:21;;;;;;;53.70;31.62;;;;;;;12.45;39.01;99462.15;2101145;84;21017;-84
2022/03/16 09:10:21;;;;;;;46.40;29.60;;;;;;;12.67;38.26;99475.98;2119587;83;21062;-84
2022/03/16 09:13:22;;;;;;;43.50;28.25;;;;;;;12.79;38.46;99473.96;2120440;83;20998;-84
2022/03/16 09:16:23;;;;;;;53.10;29.67;;;;;;;13.15;38.79;99470.94;2109710;84;21033;-83
2022/03/16 09:19:23;;;;;;;47.73;28.50;;;;;;;13.48;38.00;99476.13;2116435;84;21002;-85
2022/03/16 09:22:24;;;;;;;870.20;101.10;;;;;;;13.48;35.93;99486.62;2101578;84;21006;-83
2022/03/16 09:25:25;;;;;;;47.15;29.07;;;;;;;13.56;36.68;99482.33;2117239;84;21009;-84
2022/03/16 09:28:25;;;;;;;39.48;26.20;;;;;;;13.71;35.70;99487.73;2111345;83;21477;-85
2022/03/16 09:31:26;;;;;;;38.45;27.93;;;;;;;13.84;35.55;99484.78;2109531;84;21134;-86
2022/03/16 09:34:27;;;;;;;262.10;44.18;;;;;;;13.96;35.26;99484.92;2109662;84;21430;-85
2022/03/16 09:37:28;;;;;;;49.40;27.30;;;;;;;13.97;35.34;99489.30;2109226;84;21054;-85
2022/03/16 09:40:28;;;;;;;100.62;34.50;;;;;;;14.15;34.85;99492.52;2099869;84;21060;-84
2022/03/16 09:43:29;;;;;;;41.65;27.95;;;;;;;13.90;35.28;99492.74;2091534;84;21139;-85
2022/03/16 09:46:31;;;;;;;45.48;29.23;;;;;;;13.84;35.17;99504.47;2090781;84;20962;-84
2022/03/16 09:49:33;;;;;;;38.73;28.50;;;;;;;13.77;35.63;99513.14;2117071;84;21011;-85
2022/03/16 09:52:34;;;;;;;55.10;34.88;;;;;;;13.74;35.75;99519.23;2117177;83;21034;-84
2022/03/16 09:55:34;;;;;;;42.45;29.92;;;;;;;13.69;35.99;99523.56;2110656;84;21065;-84
2022/03/16 09:58:35;;;;;;;44.30;29.92;;;;;;;13.57;36.70;99522.13;2108323;84;21013;-84
2022/03/16 10:01:36;;;;;;;47.30;30.68;;;;;;;13.34;37.13;99532.36;2117704;84;21561;-85
2022/03/16 10:04:36;;;;;;;42.03;30.02;;;;;;;13.19;36.96;99538.30;2108089;84;21049;-84
2022/03/16 10:07:37;;;;;;;48.38;30.62;;;;;;;13.19;36.87;99538.30;2097265;84;21045;-83
2022/03/16 10:13:57;;;;;;;1999.90;326.27;;;;;;;13.05;37.44;99544.65;2088790;85;21437;-82
2022/03/16 10:20:16;;;;;;;50.63;32.42;;;;;;;13.37;38.04;99552.95;2116163;84;21034;-86
2022/03/16 10:23:17;;;;;;;52.98;30.88;;;;;;;13.39;37.64;99555.16;2106826;84;20978;-84
2022/03/16 10:26:18;;;;;;;47.13;32.55;;;;;;;13.41;37.79;99563.04;2117699;84;21380;-83
2022/03/16 10:29:18;;;;;;;50.78;32.17;;;;;;;13.46;37.52;99565.72;2093169;84;20995;-84
2022/03/16 10:32:19;;;;;;;130.47;36.42;;;;;;;13.75;37.57;99569.97;2094145;84;21010;-84
2022/03/16 10:35:20;;;;;;;164.85;53.28;;;;;;;13.75;37.57;99569.97;2087524;85;20998;-85
2022/03/16 10:38:21;;;;;;;47.60;31.12;;;;;;;13.81;38.24;99573.97;2115933;84;21289;-84
2022/03/16 10:47:49;;;;;;;43.13;29.45;;;;;;;13.83;37.52;99594.55;2124273;84;21120;-84
2022/03/16 10:50:50;;;;;;;53.78;31.10;;;;;;;14.01;37.44;99594.34;2123563;84;21469;-82
2022/03/16 10:53:52;;;;;;;87.53;32.50;;;;;;;14.18;37.36;99598.88;2110063;84;20982;-83
2022/03/16 10:56:53;;;;;;;327.30;52.40;;;;;;;14.18;36.48;99601.06;2117818;84;21066;-84
2022/03/16 10:59:53;;;;;;;81.35;33.38;;;;;;;14.21;36.77;99605.46;2117029;84;21062;-82
2022/03/16 11:02:56;;;;;;;64.55;32.00;;;;;;;14.10;36.33;99603.17;2091862;85;21090;-84
2022/03/16 11:05:56;;;;;;;45.88;29.72;;;;;;;14.02;36.57;99607.03;2117660;84;20990;-84
2022/03/16 11:08:57;;;;;;;43.35;30.10;;;;;;;14.05;37.09;99604.87;2116450;84;20983;-83
2022/03/16 11:15:17;;;;;;;39.90;26.80;;;;;;;13.95;37.11;99615.70;2117277;84;21101;-84
2022/03/16 11:18:19;;;;;;;48.42;31.27;;;;;;;13.89;36.99;99611.70;2116703;84;21457;-84
2022/03/16 11:21:20;;;;;;;104.32;33.70;;;;;;;13.88;37.37;99610.83;2123616;84;21038;-85
2022/03/16 11:24:20;;;;;;;47.15;28.27;;;;;;;13.87;37.44;99616.02;2122643;84;21426;-85
2022/03/16 11:27:24;;;;;;;66.10;30.48;;;;;;;13.83;36.83;99618.17;2115892;84;21085;-86
2022/03/16 11:30:29;;;;;;;46.48;29.70;;;;;;;13.79;37.12;99620.31;2109194;84;21116;-84
2022/03/16 11:33:30;;;;;;;42.03;28.47;;;;;;;13.67;37.08;99619.30;2118718;84;21041;-82
2022/03/16 11:36:31;;;;;;;45.45;29.00;;;;;;;13.38;37.73;99622.88;2122228;84;21028;-84
2022/03/16 11:39:32;;;;;;;43.50;29.52;;;;;;;13.28;38.31;99621.00;2119755;84;21104;-79
2022/03/16 11:42:34;;;;;;;60.63;36.45;;;;;;;13.30;38.10;99623.22;2116243;84;21068;-84
2022/03/16 11:45:38;;;;;;;44.53;32.17;;;;;;;13.41;37.77;99629.03;2117884;84;21292;-81
2022/03/16 11:48:40;;;;;;;41.23;31.37;;;;;;;13.61;37.81;99628.41;2117931;84;20970;-83
2022/03/16 11:51:43;;;;;;;44.30;29.67;;;;;;;13.66;37.24;99621.91;2117697;84;21121;-84
2022/03/16 11:54:45;;;;;;;61.92;30.62;;;;;;;13.78;37.44;99629.92;2117432;84;21066;-84
2022/03/16 11:57:46;;;;;;;47.33;28.83;;;;;;;13.82;36.91;99627.78;2116023;84;21124;-85
2022/03/16 12:00:48;;;;;;;37.80;28.30;;;;;;;13.78;37.00;99626.42;2116794;83;21029;-84
2022/03/16 12:03:48;;;;;;;70.10;30.30;;;;;;;13.80;36.69;99621.64;2116382;84;21027;-82
2022/03/16 12:06:50;;;;;;;46.68;28.45;;;;;;;13.81;36.84;99623.39;2116097;84;21028;-83
2022/03/16 12:09:52;;;;;;;44.38;27.85;;;;;;;13.95;37.09;99621.84;2116884;84;21671;-83
2022/03/16 12:12:57;;;;;;;38.30;27.22;;;;;;;13.96;36.23;99631.91;2116534;84;21065;-84
2022/03/16 12:15:57;;;;;;;41.75;26.75;;;;;;;13.69;36.12;99628.07;2117180;84;21058;-84
2022/03/16 12:22:06;;;;;;;54.88;27.00;;;;;;;13.42;36.92;99625.55;2062480;84;21051;-84
2022/03/16 12:25:10;;;;;;;96.55;30.48;;;;;;;13.50;37.56;99618.66;2118203;84;21018;-85
2022/03/16 12:31:30;;;;;;;47.65;26.07;;;;;;;13.76;36.90;99620.27;2117958;84;22055;-86
2022/03/16 12:34:32;;;;;;;38.95;26.68;;;;;;;13.77;37.03;99618.98;2116144;84;21041;-83
2022/03/16 12:37:33;;;;;;;33.88;25.12;;;;;;;13.53;35.76;99625.25;2117048;83;21026;-85
2022/03/16 12:40:33;;;;;;;93.52;28.90;;;;;;;13.53;35.76;99625.25;2116395;84;21422;-84
2022/03/16 12:43:34;;;;;;;35.45;23.90;;;;;;;13.43;36.26;99624.69;2100785;84;20966;-84
2022/03/16 12:46:34;;;;;;;37.23;24.67;;;;;;;13.47;36.02;99625.17;2114727;84;21429;-83
2022/03/16 12:49:35;;;;;;;33.90;23.77;;;;;;;13.53;35.55;99630.50;2100595;84;21779;-85
2022/03/16 12:52:37;;;;;;;33.53;24.00;;;;;;;13.46;35.74;99627.34;2115752;83;21022;-84
2022/03/16 12:55:39;;;;;;;34.70;23.92;;;;;;;13.38;35.62;99628.13;2060231;83;21105;-85
2022/03/16 12:58:41;;;;;;;86.55;27.25;;;;;;;13.30;35.97;99624.95;2092372;84;20990;-84
2022/03/16 13:01:41;;;;;;;36.70;23.05;;;;;;;13.31;35.55;99626.72;2116100;84;21002;-85
2022/03/16 13:04:42;;;;;;;34.95;23.55;;;;;;;13.22;35.42;99632.72;2110001;83;21006;-83
2022/03/16 13:07:42;;;;;;;40.50;22.10;;;;;;;13.17;36.20;99633.08;2109614;83;20963;-82
2022/03/16 13:14:02;;;;;;;33.28;21.65;;;;;;;13.41;34.95;99642.14;2115652;84;21054;-82
2022/03/16 13:17:04;;;;;;;39.88;21.93;;;;;;;13.35;35.57;99639.89;2115582;84;21014;-85
2022/03/16 13:20:04;;;;;;;34.18;20.70;;;;;;;13.44;35.37;99639.56;2109532;83;21414;-83
2022/03/16 13:23:05;;;;;;;29.98;19.57;;;;;;;13.46;34.84;99645.27;2113773;83;20990;-83
2022/03/16 13:26:10;;;;;;;32.95;20.27;;;;;;;13.54;35.10;99642.75;2112640;83;21057;-83
2022/03/16 13:29:10;;;;;;;30.50;19.37;;;;;;;13.59;34.62;99651.55;2109377;83;21425;-82
2022/03/16 13:32:10;;;;;;;28.45;19.10;;;;;;;13.56;34.94;99655.45;2109466;83;21037;-83
2022/03/16 13:35:11;;;;;;;33.95;19.90;;;;;;;13.62;35.03;99662.09;2109409;83;21002;-84
2022/03/16 13:38:11;;;;;;;41.02;19.50;;;;;;;13.62;35.03;99662.09;2117976;84;21409;-84
2022/03/16 13:41:12;;;;;;;27.50;19.05;;;;;;;13.65;33.93;99671.30;2118602;84;21045;-84
2022/03/16 13:44:12;;;;;;;30.68;21.75;;;;;;;13.66;34.36;99665.20;2118569;84;21305;-84
2022/03/16 13:47:15;;;;;;;30.02;19.57;;;;;;;13.68;34.71;99667.41;2117631;84;20990;-80
2022/03/16 13:53:18;;;;;;;41.15;21.68;;;;;;;13.63;33.88;99673.03;2093533;84;21661;-84
2022/03/16 13:56:18;;;;;;;31.87;20.77;;;;;;;13.63;34.54;99673.03;2119305;84;20986;-83
2022/03/16 13:59:19;;;;;;;31.25;21.45;;;;;;;13.73;34.36;99675.34;2118283;84;21006;-83
2022/03/16 14:05:24;;;;;;;36.85;19.42;;;;;;;13.61;33.76;99690.49;2093175;84;20974;-84
2022/03/16 14:08:25;;;;;;;24.47;18.42;;;;;;;13.56;34.17;99689.13;2117828;84;20998;-84
2022/03/16 14:11:27;;;;;;;28.45;18.07;;;;;;;13.61;34.15;99691.38;2115988;84;21069;-85
2022/03/16 14:14:28;;;;;;;26.80;18.00;;;;;;;13.66;34.39;99689.69;2115754;84;21037;-84
2022/03/16 14:17:29;;;;;;;27.95;19.05;;;;;;;13.74;34.01;99696.34;2116026;84;21045;-83
2022/03/16 14:20:29;;;;;;;28.73;18.60;;;;;;;13.70;33.77;99691.92;2116011;84;20963;-84
2022/03/16 14:26:32;;;;;;;41.02;17.77;;;;;;;13.55;33.69;99699.59;2093876;84;20959;-83
2022/03/16 14:29:33;;;;;;;25.17;16.42;;;;;;;13.57;33.23;99698.75;2116534;84;20966;-84
2022/03/16 14:32:33;;;;;;;148.28;23.83;;;;;;;13.57;32.75;99701.80;2116621;84;21505;-83